sensor_id;sensor_type;location;lat;lon;timestamp;pressure;altitude;pressure_sealevel;temperature;humidity
29733;BME280;16643;43.158;25.302;2023-02-17T00:01:27;98826.44;;;5.83;67.07
29733;BME280;16643;43.158;25.302;2023-02-17T00:03:54;98825.56;;;5.78;67.41
29733;BME280;16643;43.158;25.302;2023-02-17T00:06:21;98826.44;;;5.78;65.95
29733;BME280;16643;43.158;25.302;2023-02-17T00:08:47;98821.31;;;5.86;65.62
29733;BME280;16643;43.158;25.302;2023-02-17T00:11:13;98811.88;;;5.93;64.83
29733;BME280;16643;43.158;25.302;2023-02-17T00:13:39;98817.03;;;5.94;64.45
29733;BME280;16643;43.158;25.302;2023-02-17T00:16:07;98812.72;;;5.95;64.77
29733;BME280;16643;43.158;25.302;2023-02-17T00:18:33;98806.72;;;5.97;64.71
29733;BME280;16643;43.158;25.302;2023-02-17T00:20:58;98810.16;;;6.08;63.27
29733;BME280;16643;43.158;25.302;2023-02-17T00:23:24;98808.41;;;6.06;64.30
29733;BME280;16643;43.158;25.302;2023-02-17T00:25:52;98807.56;;;6.07;62.04
29733;BME280;16643;43.158;25.302;2023-02-17T00:28:18;98804.13;;;6.06;62.95
29733;BME280;16643;43.158;25.302;2023-02-17T00:30:43;98800.66;;;6.16;60.47
29733;BME280;16643;43.158;25.302;2023-02-17T00:33:11;98800.63;;;6.21;62.52
29733;BME280;16643;43.158;25.302;2023-02-17T00:35:39;98793.78;;;6.20;61.62
29733;BME280;16643;43.158;25.302;2023-02-17T00:38:05;98789.44;;;6.22;62.51
29733;BME280;16643;43.158;25.302;2023-02-17T00:40:31;98791.16;;;6.34;59.77
29733;BME280;16643;43.158;25.302;2023-02-17T00:42:56;98794.59;;;6.34;61.26
29733;BME280;16643;43.158;25.302;2023-02-17T00:45:22;98791.16;;;6.43;59.32
29733;BME280;16643;43.158;25.302;2023-02-17T00:47:50;98783.34;;;6.55;58.49
29733;BME280;16643;43.158;25.302;2023-02-17T00:50:15;98782.47;;;6.65;57.80
29733;BME280;16643;43.158;25.302;2023-02-17T00:52:41;98775.56;;;6.67;58.36
29733;BME280;16643;43.158;25.302;2023-02-17T00:55:09;98776.44;;;6.63;59.50
29733;BME280;16643;43.158;25.302;2023-02-17T00:57:35;98781.59;;;6.68;57.77
29733;BME280;16643;43.158;25.302;2023-02-17T01:00:00;98772.09;;;6.71;58.33
29733;BME280;16643;43.158;25.302;2023-02-17T01:02:26;98767.81;;;6.73;57.05
29733;BME280;16643;43.158;25.302;2023-02-17T01:04:52;98766.03;;;6.78;56.53
29733;BME280;16643;43.158;25.302;2023-02-17T01:07:18;98765.19;;;6.79;56.95
29733;BME280;16643;43.158;25.302;2023-02-17T01:09:47;98767.75;;;6.82;56.62
29733;BME280;16643;43.158;25.302;2023-02-17T01:12:13;98766.91;;;6.83;57.50
29733;BME280;16643;43.158;25.302;2023-02-17T01:14:38;98760.88;;;6.81;56.56
29733;BME280;16643;43.158;25.302;2023-02-17T01:17:07;98750.47;;;6.89;54.70
29733;BME280;16643;43.158;25.302;2023-02-17T01:19:32;98753.88;;;7.02;54.08
29733;BME280;16643;43.158;25.302;2023-02-17T01:21:57;98756.50;;;6.97;54.93
29733;BME280;16643;43.158;25.302;2023-02-17T01:24:24;98753.00;;;7.01;54.64
29733;BME280;16643;43.158;25.302;2023-02-17T01:26:49;98745.25;;;7.06;54.57
29733;BME280;16643;43.158;25.302;2023-02-17T01:29:23;98746.97;;;7.05;53.91
29733;BME280;16643;43.158;25.302;2023-02-17T01:31:51;98746.03;;;7.12;54.06
29733;BME280;16643;43.158;25.302;2023-02-17T01:34:17;98742.59;;;7.16;53.01
29733;BME280;16643;43.158;25.302;2023-02-17T01:36:45;98741.63;;;7.33;52.69
29733;BME280;16643;43.158;25.302;2023-02-17T01:39:12;98742.50;;;7.32;54.25
29733;BME280;16643;43.158;25.302;2023-02-17T01:41:40;98745.16;;;7.18;54.43
29733;BME280;16643;43.158;25.302;2023-02-17T01:44:17;98739.13;;;7.17;53.32
29733;BME280;16643;43.158;25.302;2023-02-17T01:46:47;98738.22;;;7.23;53.19
29733;BME280;16643;43.158;25.302;2023-02-17T01:52:21;98732.19;;;7.22;52.43
29733;BME280;16643;43.158;25.302;2023-02-17T01:54:50;98736.47;;;7.28;53.19
29733;BME280;16643;43.158;25.302;2023-02-17T01:57:18;98738.13;;;7.37;52.03
29733;BME280;16643;43.158;25.302;2023-02-17T01:59:45;98724.34;;;7.36;53.70
29733;BME280;16643;43.158;25.302;2023-02-17T02:02:12;98733.75;;;7.46;52.54
29733;BME280;16643;43.158;25.302;2023-02-17T02:04:38;98731.16;;;7.48;52.93
29733;BME280;16643;43.158;25.302;2023-02-17T02:07:05;98724.25;;;7.48;52.66
29733;BME280;16643;43.158;25.302;2023-02-17T02:09:36;98725.13;;;7.49;52.55
29733;BME280;16643;43.158;25.302;2023-02-17T02:12:13;98721.66;;;7.50;53.60
29733;BME280;16643;43.158;25.302;2023-02-17T02:14:43;98727.66;;;7.55;52.54
29733;BME280;16643;43.158;25.302;2023-02-17T02:30:10;98728.56;;;7.46;54.54
29733;BME280;16643;43.158;25.302;2023-02-17T02:35:31;98725.16;;;7.44;53.63
29733;BME280;16643;43.158;25.302;2023-02-17T02:38:07;98727.72;;;7.46;53.89
29733;BME280;16643;43.158;25.302;2023-02-17T02:40:36;98731.22;;;7.43;53.49
29733;BME280;16643;43.158;25.302;2023-02-17T02:43:04;98724.34;;;7.39;55.12
29733;BME280;16643;43.158;25.302;2023-02-17T02:45:30;98727.75;;;7.44;54.49
29733;BME280;16643;43.158;25.302;2023-02-17T02:47:56;98732.97;;;7.35;55.60
29733;BME280;16643;43.158;25.302;2023-02-17T02:50:35;98727.84;;;7.31;55.80
29733;BME280;16643;43.158;25.302;2023-02-17T02:55:50;98730.47;;;7.23;55.93
29733;BME280;16643;43.158;25.302;2023-02-17T02:58:30;98733.06;;;7.23;57.22
29733;BME280;16643;43.158;25.302;2023-02-17T03:01:05;98736.50;;;7.25;56.44
29733;BME280;16643;43.158;25.302;2023-02-17T03:03:39;98738.28;;;7.17;56.74
29733;BME280;16643;43.158;25.302;2023-02-17T03:06:11;98740.91;;;7.09;57.07
29733;BME280;16643;43.158;25.302;2023-02-17T03:08:41;98737.44;;;7.15;56.97
29733;BME280;16643;43.158;25.302;2023-02-17T03:11:08;98740.03;;;7.12;57.20
29733;BME280;16643;43.158;25.302;2023-02-17T03:13:36;98737.47;;;7.10;56.91
29733;BME280;16643;43.158;25.302;2023-02-17T03:16:04;98734.03;;;7.10;55.89
29733;BME280;16643;43.158;25.302;2023-02-17T03:18:33;98740.06;;;7.09;57.22
29733;BME280;16643;43.158;25.302;2023-02-17T03:21:01;98736.63;;;7.10;57.51
29733;BME280;16643;43.158;25.302;2023-02-17T03:23:28;98730.56;;;7.11;57.02
29733;BME280;16643;43.158;25.302;2023-02-17T03:25:53;98744.31;;;7.14;57.17
29733;BME280;16643;43.158;25.302;2023-02-17T03:28:19;98737.41;;;7.18;57.08
29733;BME280;16643;43.158;25.302;2023-02-17T03:30:44;98734.84;;;7.16;57.38
29733;BME280;16643;43.158;25.302;2023-02-17T03:33:10;98732.25;;;7.15;57.91
29733;BME280;16643;43.158;25.302;2023-02-17T03:35:35;98734.94;;;7.00;58.81
29733;BME280;16643;43.158;25.302;2023-02-17T03:38:03;98742.66;;;7.01;59.20
29733;BME280;16643;43.158;25.302;2023-02-17T03:40:32;98737.50;;;7.01;58.21
29733;BME280;16643;43.158;25.302;2023-02-17T03:42:58;98741.00;;;6.96;60.03
29733;BME280;16643;43.158;25.302;2023-02-17T03:45:34;98737.63;;;6.83;60.00
29733;BME280;16643;43.158;25.302;2023-02-17T03:47:59;98741.91;;;6.87;59.91
29733;BME280;16643;43.158;25.302;2023-02-17T03:50:25;98742.78;;;6.87;59.25
29733;BME280;16643;43.158;25.302;2023-02-17T03:52:50;98743.63;;;6.85;60.68
29733;BME280;16643;43.158;25.302;2023-02-17T03:55:20;98744.50;;;6.79;60.78
29733;BME280;16643;43.158;25.302;2023-02-17T03:57:47;98742.81;;;6.77;61.08
29733;BME280;16643;43.158;25.302;2023-02-17T04:00:12;98735.03;;;6.80;59.70
29733;BME280;16643;43.158;25.302;2023-02-17T04:02:39;98753.16;;;6.74;60.54
29733;BME280;16643;43.158;25.302;2023-02-17T04:05:04;98749.72;;;6.69;60.97
29733;BME280;16643;43.158;25.302;2023-02-17T04:07:34;98752.31;;;6.70;60.91
29733;BME280;16643;43.158;25.302;2023-02-17T04:10:00;98755.75;;;6.71;60.82
29733;BME280;16643;43.158;25.302;2023-02-17T04:12:25;98742.84;;;6.66;60.96
29733;BME280;16643;43.158;25.302;2023-02-17T04:14:51;98746.31;;;6.65;61.47
29733;BME280;16643;43.158;25.302;2023-02-17T04:17:20;98747.16;;;6.67;62.25
29733;BME280;16643;43.158;25.302;2023-02-17T04:19:45;98750.59;;;6.66;62.68
29733;BME280;16643;43.158;25.302;2023-02-17T04:22:26;98757.50;;;6.63;62.88
29733;BME280;16643;43.158;25.302;2023-02-17T04:24:51;98760.09;;;6.63;62.38
29733;BME280;16643;43.158;25.302;2023-02-17T04:27:18;98747.19;;;6.55;63.29
29733;BME280;16643;43.158;25.302;2023-02-17T04:29:43;98751.50;;;6.56;63.71
29733;BME280;16643;43.158;25.302;2023-02-17T04:32:09;98751.53;;;6.50;63.84
29733;BME280;16643;43.158;25.302;2023-02-17T04:34:37;98752.41;;;6.47;63.87
29733;BME280;16643;43.158;25.302;2023-02-17T04:37:03;98762.75;;;6.38;64.80
29733;BME280;16643;43.158;25.302;2023-02-17T04:39:28;98756.72;;;6.33;64.88
29733;BME280;16643;43.158;25.302;2023-02-17T04:41:54;98763.63;;;6.34;65.25
29733;BME280;16643;43.158;25.302;2023-02-17T04:44:19;98756.72;;;6.36;65.68
29733;BME280;16643;43.158;25.302;2023-02-17T04:46:44;98759.31;;;6.33;65.29
29733;BME280;16643;43.158;25.302;2023-02-17T04:49:11;98764.50;;;6.32;65.68
29733;BME280;16643;43.158;25.302;2023-02-17T04:51:36;98755.88;;;6.34;65.63
29733;BME280;16643;43.158;25.302;2023-02-17T04:54:02;98767.09;;;6.32;65.71
29733;BME280;16643;43.158;25.302;2023-02-17T04:56:27;98764.50;;;6.23;66.66
29733;BME280;16643;43.158;25.302;2023-02-17T04:58:56;98762.81;;;6.18;67.12
29733;BME280;16643;43.158;25.302;2023-02-17T05:01:23;98765.38;;;6.26;65.36
29733;BME280;16643;43.158;25.302;2023-02-17T05:03:49;98771.41;;;6.31;65.52
29733;BME280;16643;43.158;25.302;2023-02-17T05:06:21;98764.47;;;6.33;64.41
29733;BME280;16643;43.158;25.302;2023-02-17T05:08:49;98764.47;;;6.35;64.57
29733;BME280;16643;43.158;25.302;2023-02-17T05:11:15;98765.34;;;6.38;63.94
29733;BME280;16643;43.158;25.302;2023-02-17T05:13:41;98764.44;;;6.48;63.86
29733;BME280;16643;43.158;25.302;2023-02-17T05:16:07;98760.97;;;6.65;62.91
29733;BME280;16643;43.158;25.302;2023-02-17T05:18:35;98765.22;;;6.75;62.83
29733;BME280;16643;43.158;25.302;2023-02-17T05:21:00;98768.56;;;6.90;63.15
29733;BME280;16643;43.158;25.302;2023-02-17T05:23:27;98773.72;;;6.93;63.42
29733;BME280;16643;43.158;25.302;2023-02-17T05:25:52;98769.41;;;6.99;63.17
29733;BME280;16643;43.158;25.302;2023-02-17T05:28:17;98767.69;;;6.99;63.56
29733;BME280;16643;43.158;25.302;2023-02-17T05:30:43;98771.94;;;7.05;63.25
29733;BME280;16643;43.158;25.302;2023-02-17T05:33:08;98772.81;;;7.07;63.71
29733;BME280;16643;43.158;25.302;2023-02-17T05:35:34;98774.47;;;7.12;62.93
29733;BME280;16643;43.158;25.302;2023-02-17T05:38:09;98772.75;;;7.17;62.94
29733;BME280;16643;43.158;25.302;2023-02-17T05:40:34;98770.09;;;7.26;62.61
29733;BME280;16643;43.158;25.302;2023-02-17T05:43:00;98784.66;;;7.38;61.69
29733;BME280;16643;43.158;25.302;2023-02-17T05:45:25;98780.38;;;7.39;62.59
29733;BME280;16643;43.158;25.302;2023-02-17T05:47:52;98779.47;;;7.44;60.69
29733;BME280;16643;43.158;25.302;2023-02-17T05:50:17;98781.13;;;7.53;60.79
29733;BME280;16643;43.158;25.302;2023-02-17T05:52:50;98790.50;;;7.68;59.50
29733;BME280;16643;43.158;25.302;2023-02-17T05:55:15;98782.69;;;7.77;59.48
29733;BME280;16643;43.158;25.302;2023-02-17T05:57:42;98785.22;;;7.81;59.56
29733;BME280;16643;43.158;25.302;2023-02-17T06:00:08;98792.13;;;7.81;58.94
29733;BME280;16643;43.158;25.302;2023-02-17T06:02:33;98801.59;;;7.82;59.16
29733;BME280;16643;43.158;25.302;2023-02-17T06:04:59;98800.75;;;7.80;59.63
29733;BME280;16643;43.158;25.302;2023-02-17T06:07:27;98806.75;;;7.83;59.56
29733;BME280;16643;43.158;25.302;2023-02-17T06:09:53;98802.44;;;7.88;59.46
29733;BME280;16643;43.158;25.302;2023-02-17T06:12:18;98809.25;;;7.95;58.66
29733;BME280;16643;43.158;25.302;2023-02-17T06:14:44;98816.06;;;8.06;58.91
29733;BME280;16643;43.158;25.302;2023-02-17T06:17:10;98808.28;;;8.09;58.42
29733;BME280;16643;43.158;25.302;2023-02-17T06:19:36;98815.97;;;8.15;57.98
29733;BME280;16643;43.158;25.302;2023-02-17T06:22:05;98818.56;;;8.15;58.54
29733;BME280;16643;43.158;25.302;2023-02-17T06:24:30;98815.13;;;8.14;58.99
29733;BME280;16643;43.158;25.302;2023-02-17T06:26:56;98823.72;;;8.21;57.99
29733;BME280;16643;43.158;25.302;2023-02-17T06:29:21;98821.06;;;8.27;57.25
29733;BME280;16643;43.158;25.302;2023-02-17T06:31:47;98823.53;;;8.42;55.46
29733;BME280;16643;43.158;25.302;2023-02-17T06:34:12;98821.69;;;8.53;55.43
29733;BME280;16643;43.158;25.302;2023-02-17T06:36:38;98830.19;;;8.66;55.00
29733;BME280;16643;43.158;25.302;2023-02-17T06:39:04;98827.53;;;8.72;54.80
29733;BME280;16643;43.158;25.302;2023-02-17T06:41:29;98826.50;;;8.88;54.80
29733;BME280;16643;43.158;25.302;2023-02-17T06:43:55;98828.94;;;9.00;53.25
29733;BME280;16643;43.158;25.302;2023-02-17T06:46:20;98835.63;;;9.18;52.17
29733;BME280;16643;43.158;25.302;2023-02-17T06:48:46;98836.34;;;9.29;52.24
29733;BME280;16643;43.158;25.302;2023-02-17T06:51:12;98832.84;;;9.32;53.07
29733;BME280;16643;43.158;25.302;2023-02-17T06:53:37;98819.00;;;9.33;53.67
29733;BME280;16643;43.158;25.302;2023-02-17T06:56:03;98830.19;;;9.36;54.06
29733;BME280;16643;43.158;25.302;2023-02-17T06:58:31;98829.41;;;9.30;55.49
29733;BME280;16643;43.158;25.302;2023-02-17T07:00:59;98833.63;;;9.38;53.82
29733;BME280;16643;43.158;25.302;2023-02-17T07:03:25;98824.03;;;9.45;54.25
29733;BME280;16643;43.158;25.302;2023-02-17T07:05:55;98828.34;;;9.46;54.31
29733;BME280;16643;43.158;25.302;2023-02-17T07:08:21;98819.59;;;9.52;55.06
29733;BME280;16643;43.158;25.302;2023-02-17T07:10:51;98830.72;;;9.60;54.29
29733;BME280;16643;43.158;25.302;2023-02-17T07:13:16;98825.38;;;9.70;53.27
29733;BME280;16643;43.158;25.302;2023-02-17T07:15:43;98833.09;;;9.75;52.84
29733;BME280;16643;43.158;25.302;2023-02-17T07:18:20;98839.06;;;9.81;53.47
29733;BME280;16643;43.158;25.302;2023-02-17T07:20:45;98845.06;;;9.85;54.61
29733;BME280;16643;43.158;25.302;2023-02-17T07:23:12;98857.81;;;9.99;53.03
29733;BME280;16643;43.158;25.302;2023-02-17T07:25:38;98861.09;;;10.11;52.66
29733;BME280;16643;43.158;25.302;2023-02-17T07:28:03;98861.81;;;10.21;51.97
29733;BME280;16643;43.158;25.302;2023-02-17T07:30:29;98869.59;;;10.23;53.10
29733;BME280;16643;43.158;25.302;2023-02-17T07:32:55;98878.22;;;10.25;51.53
29733;BME280;16643;43.158;25.302;2023-02-17T07:35:20;98876.25;;;10.39;52.08
29733;BME280;16643;43.158;25.302;2023-02-17T07:37:46;98877.88;;;10.44;52.65
29733;BME280;16643;43.158;25.302;2023-02-17T07:40:20;98878.59;;;10.52;50.90
29733;BME280;16643;43.158;25.302;2023-02-17T07:42:55;98880.09;;;10.66;50.84
29733;BME280;16643;43.158;25.302;2023-02-17T07:45:25;98883.16;;;10.89;49.47
29733;BME280;16643;43.158;25.302;2023-02-17T07:47:51;98879.44;;;11.02;49.15
29733;BME280;16643;43.158;25.302;2023-02-17T07:50:17;98889.56;;;11.16;48.69
29733;BME280;16643;43.158;25.302;2023-02-17T07:52:43;98897.28;;;11.19;50.40
29733;BME280;16643;43.158;25.302;2023-02-17T07:55:08;98899.16;;;11.12;48.83
29733;BME280;16643;43.158;25.302;2023-02-17T07:57:34;98895.56;;;11.19;48.71
29733;BME280;16643;43.158;25.302;2023-02-17T08:00:03;98891.94;;;11.28;48.82
29733;BME280;16643;43.158;25.302;2023-02-17T08:02:29;98895.34;;;11.30;47.37
29733;BME280;16643;43.158;25.302;2023-02-17T08:04:54;98897.84;;;11.35;47.67
29733;BME280;16643;43.158;25.302;2023-02-17T08:07:21;98897.84;;;11.35;47.94
29733;BME280;16643;43.158;25.302;2023-02-17T08:09:46;98895.31;;;11.32;46.65
29733;BME280;16643;43.158;25.302;2023-02-17T08:12:30;98895.41;;;11.28;46.20
29733;BME280;16643;43.158;25.302;2023-02-17T08:15:14;98891.66;;;11.40;46.20
29733;BME280;16643;43.158;25.302;2023-02-17T08:17:44;98893.13;;;11.52;47.03
29733;BME280;16643;43.158;25.302;2023-02-17T08:20:10;98899.91;;;11.62;47.46
29733;BME280;16643;43.158;25.302;2023-02-17T08:22:38;98901.56;;;11.64;46.01
29733;BME280;16643;43.158;25.302;2023-02-17T08:25:03;98895.34;;;11.72;46.18
29733;BME280;16643;43.158;25.302;2023-02-17T08:27:30;98888.22;;;11.81;44.04
29733;BME280;16643;43.158;25.302;2023-02-17T08:30:00;98886.91;;;11.99;43.27
29733;BME280;16643;43.158;25.302;2023-02-17T08:32:26;98890.72;;;12.21;43.77
29733;BME280;16643;43.158;25.302;2023-02-17T08:34:54;98889.47;;;12.38;42.67
29733;BME280;16643;43.158;25.302;2023-02-17T08:37:20;98890.13;;;12.46;42.53
29733;BME280;16643;43.158;25.302;2023-02-17T08:39:49;98886.44;;;12.54;41.69
29733;BME280;16643;43.158;25.302;2023-02-17T08:42:16;98882.56;;;12.69;43.06
29733;BME280;16643;43.158;25.302;2023-02-17T08:44:43;98885.50;;;12.89;42.28
29733;BME280;16643;43.158;25.302;2023-02-17T08:47:08;98885.81;;;13.09;43.30
29733;BME280;16643;43.158;25.302;2023-02-17T08:49:35;98883.22;;;13.09;43.62
29733;BME280;16643;43.158;25.302;2023-02-17T08:52:01;98882.00;;;13.23;41.20
29733;BME280;16643;43.158;25.302;2023-02-17T08:54:27;98875.25;;;13.45;40.66
29733;BME280;16643;43.158;25.302;2023-02-17T08:56:53;98880.63;;;13.40;39.90
29733;BME280;16643;43.158;25.302;2023-02-17T08:59:19;98881.47;;;13.42;40.98
29733;BME280;16643;43.158;25.302;2023-02-17T09:01:45;98891.47;;;13.56;41.18
29733;BME280;16643;43.158;25.302;2023-02-17T09:04:11;98882.22;;;13.75;40.14
29733;BME280;16643;43.158;25.302;2023-02-17T09:06:49;98883.94;;;13.76;40.18
29733;BME280;16643;43.158;25.302;2023-02-17T09:09:19;98883.47;;;13.62;40.61
29733;BME280;16643;43.158;25.302;2023-02-17T09:11:46;98888.19;;;13.79;40.49
29733;BME280;16643;43.158;25.302;2023-02-17T09:14:17;98882.50;;;13.94;39.94
29733;BME280;16643;43.158;25.302;2023-02-17T09:16:43;98870.06;;;14.01;40.49
29733;BME280;16643;43.158;25.302;2023-02-17T09:19:14;98881.16;;;14.09;39.01
29733;BME280;16643;43.158;25.302;2023-02-17T09:21:41;98881.91;;;14.40;39.46
29733;BME280;16643;43.158;25.302;2023-02-17T09:24:08;98880.16;;;14.41;38.35
29733;BME280;16643;43.158;25.302;2023-02-17T09:26:34;98878.94;;;14.51;39.87
29733;BME280;16643;43.158;25.302;2023-02-17T09:29:00;98865.56;;;14.59;39.42
29733;BME280;16643;43.158;25.302;2023-02-17T09:31:32;98864.31;;;14.70;39.01
29733;BME280;16643;43.158;25.302;2023-02-17T09:33:59;98861.88;;;14.66;38.70
29733;BME280;16643;43.158;25.302;2023-02-17T09:36:28;98866.72;;;14.51;38.48
29733;BME280;16643;43.158;25.302;2023-02-17T09:38:55;98853.44;;;14.56;38.30
29733;BME280;16643;43.158;25.302;2023-02-17T09:41:43;98864.16;;;14.75;38.50
29733;BME280;16643;43.158;25.302;2023-02-17T09:44:20;98857.72;;;14.59;37.00
29733;BME280;16643;43.158;25.302;2023-02-17T09:47:04;98855.50;;;14.73;36.75
29733;BME280;16643;43.158;25.302;2023-02-17T09:49:43;98852.50;;;14.83;37.41
29733;BME280;16643;43.158;25.302;2023-02-17T09:54:46;98844.97;;;14.99;38.25
29733;BME280;16643;43.158;25.302;2023-02-17T09:57:16;98847.00;;;14.91;36.50
29733;BME280;16643;43.158;25.302;2023-02-17T10:00:08;98849.75;;;14.88;37.48
29733;BME280;16643;43.158;25.302;2023-02-17T10:02:34;98847.78;;;14.93;36.25
29733;BME280;16643;43.158;25.302;2023-02-17T10:05:07;98832.28;;;15.12;36.97
29733;BME280;16643;43.158;25.302;2023-02-17T10:07:38;98822.47;;;15.17;36.90
29733;BME280;16643;43.158;25.302;2023-02-17T10:10:13;98827.78;;;15.15;36.99
29733;BME280;16643;43.158;25.302;2023-02-17T10:12:44;98819.72;;;15.21;36.62
29733;BME280;16643;43.158;25.302;2023-02-17T10:15:13;98825.59;;;15.26;37.17
29733;BME280;16643;43.158;25.302;2023-02-17T10:17:52;98825.66;;;15.25;36.43
29733;BME280;16643;43.158;25.302;2023-02-17T10:20:37;98824.34;;;15.37;37.32
29733;BME280;16643;43.158;25.302;2023-02-17T10:23:16;98826.31;;;15.55;37.26
29733;BME280;16643;43.158;25.302;2023-02-17T10:31:04;98819.06;;;15.83;36.63
29733;BME280;16643;43.158;25.302;2023-02-17T10:33:48;98824.13;;;15.88;37.15
29733;BME280;16643;43.158;25.302;2023-02-17T10:38:56;98825.59;;;15.95;37.00
29733;BME280;16643;43.158;25.302;2023-02-17T10:41:26;98818.47;;;15.98;37.09
29733;BME280;16643;43.158;25.302;2023-02-17T10:43:55;98821.19;;;15.95;37.04
29733;BME280;16643;43.158;25.302;2023-02-17T10:46:25;98811.91;;;16.09;36.38
29733;BME280;16643;43.158;25.302;2023-02-17T10:48:52;98810.56;;;16.20;35.67
29733;BME280;16643;43.158;25.302;2023-02-17T10:51:27;98801.16;;;16.15;35.87
29733;BME280;16643;43.158;25.302;2023-02-17T10:54:01;98799.69;;;16.29;35.62
29733;BME280;16643;43.158;25.302;2023-02-17T11:01:39;98790.66;;;16.57;34.27
29733;BME280;16643;43.158;25.302;2023-02-17T11:04:06;98796.69;;;16.59;35.06
29733;BME280;16643;43.158;25.302;2023-02-17T11:09:31;98778.63;;;16.72;34.67
29733;BME280;16643;43.158;25.302;2023-02-17T11:12:02;98775.81;;;16.76;35.13
29733;BME280;16643;43.158;25.302;2023-02-17T11:14:28;98782.34;;;16.67;35.36
29733;BME280;16643;43.158;25.302;2023-02-17T11:16:59;98783.44;;;16.62;35.95
29733;BME280;16643;43.158;25.302;2023-02-17T11:19:28;98784.47;;;16.78;34.62
29733;BME280;16643;43.158;25.302;2023-02-17T11:21:56;98788.41;;;16.88;34.92
29733;BME280;16643;43.158;25.302;2023-02-17T11:24:26;98782.41;;;16.85;35.23
29733;BME280;16643;43.158;25.302;2023-02-17T11:27:06;98778.53;;;16.93;34.62
29733;BME280;16643;43.158;25.302;2023-02-17T11:29:32;98784.16;;;17.04;34.34
29733;BME280;16643;43.158;25.302;2023-02-17T11:32:10;98783.41;;;17.21;35.66
29733;BME280;16643;43.158;25.302;2023-02-17T11:34:38;98783.38;;;17.40;34.79
29733;BME280;16643;43.158;25.302;2023-02-17T11:39:37;98774.50;;;17.42;34.76
29733;BME280;16643;43.158;25.302;2023-02-17T11:42:13;98760.59;;;17.22;35.09
29733;BME280;16643;43.158;25.302;2023-02-17T11:44:45;98772.81;;;17.23;35.64
29733;BME280;16643;43.158;25.302;2023-02-17T11:47:19;98771.03;;;17.42;35.84
29733;BME280;16643;43.158;25.302;2023-02-17T11:55:03;98769.59;;;17.54;35.92
29733;BME280;16643;43.158;25.302;2023-02-17T11:57:41;98766.47;;;17.46;35.87
29733;BME280;16643;43.158;25.302;2023-02-17T12:00:13;98766.56;;;17.44;36.94
29733;BME280;16643;43.158;25.302;2023-02-17T12:05:23;98766.69;;;17.22;36.92
29733;BME280;16643;43.158;25.302;2023-02-17T12:10:54;98757.75;;;16.89;38.72
29733;BME280;16643;43.158;25.302;2023-02-17T12:18:38;98755.97;;;17.27;37.70
29733;BME280;16643;43.158;25.302;2023-02-17T12:21:08;98751.22;;;17.16;36.78
29733;BME280;16643;43.158;25.302;2023-02-17T12:23:47;98753.06;;;17.14;35.22
29733;BME280;16643;43.158;25.302;2023-02-17T12:29:08;98746.31;;;17.09;37.24
29733;BME280;16643;43.158;25.302;2023-02-17T12:31:52;98741.50;;;16.99;37.37
29733;BME280;16643;43.158;25.302;2023-02-17T12:34:38;98747.16;;;16.90;37.88
29733;BME280;16643;43.158;25.302;2023-02-17T12:37:15;98751.91;;;16.82;37.19
29733;BME280;16643;43.158;25.302;2023-02-17T12:39:43;98747.84;;;16.75;37.36
29733;BME280;16643;43.158;25.302;2023-02-17T12:42:12;98736.00;;;16.85;37.39
29733;BME280;16643;43.158;25.302;2023-02-17T12:44:42;98744.53;;;16.90;37.29
29733;BME280;16643;43.158;25.302;2023-02-17T12:47:36;98748.56;;;16.79;36.69
29733;BME280;16643;43.158;25.302;2023-02-17T12:50:05;98740.63;;;16.80;36.25
29733;BME280;16643;43.158;25.302;2023-02-17T12:52:37;98742.03;;;16.87;37.50
29733;BME280;16643;43.158;25.302;2023-02-17T12:55:14;98740.41;;;16.85;37.11
29733;BME280;16643;43.158;25.302;2023-02-17T13:00:16;98742.97;;;16.86;37.35
29733;BME280;16643;43.158;25.302;2023-02-17T13:02:44;98737.91;;;16.61;35.95
29733;BME280;16643;43.158;25.302;2023-02-17T13:05:21;98743.00;;;16.46;36.58
29733;BME280;16643;43.158;25.302;2023-02-17T13:07:53;98752.50;;;16.48;36.67
29733;BME280;16643;43.158;25.302;2023-02-17T13:12:59;98744.84;;;16.44;37.05
29733;BME280;16643;43.158;25.302;2023-02-17T13:15:27;98740.38;;;16.46;36.09
29733;BME280;16643;43.158;25.302;2023-02-17T13:18:01;98744.13;;;16.40;36.86
29733;BME280;16643;43.158;25.302;2023-02-17T13:20:36;98735.19;;;16.44;36.33
29733;BME280;16643;43.158;25.302;2023-02-17T13:23:12;98744.00;;;16.23;35.83
29733;BME280;16643;43.158;25.302;2023-02-17T13:25:40;98749.16;;;16.04;36.87
29733;BME280;16643;43.158;25.302;2023-02-17T13:28:16;98749.81;;;15.89;36.68
29733;BME280;16643;43.158;25.302;2023-02-17T13:30:47;98744.75;;;15.84;36.73
29733;BME280;16643;43.158;25.302;2023-02-17T13:35:44;98755.34;;;15.81;38.45
29733;BME280;16643;43.158;25.302;2023-02-17T13:38:10;98745.97;;;15.76;37.10
29733;BME280;16643;43.158;25.302;2023-02-17T13:40:37;98743.41;;;15.74;37.15
29733;BME280;16643;43.158;25.302;2023-02-17T13:45:47;98744.22;;;15.54;37.91
29733;BME280;16643;43.158;25.302;2023-02-17T13:48:34;98739.53;;;15.39;36.86
29733;BME280;16643;43.158;25.302;2023-02-17T13:51:03;98737.94;;;15.35;35.75
29733;BME280;16643;43.158;25.302;2023-02-17T13:53:33;98733.41;;;15.40;37.08
29733;BME280;16643;43.158;25.302;2023-02-17T13:56:03;98734.84;;;15.47;37.41
29733;BME280;16643;43.158;25.302;2023-02-17T13:58:37;98729.44;;;15.52;37.04
29733;BME280;16643;43.158;25.302;2023-02-17T14:01:04;98732.06;;;15.52;36.12
29733;BME280;16643;43.158;25.302;2023-02-17T14:03:34;98741.59;;;15.54;36.42
29733;BME280;16643;43.158;25.302;2023-02-17T14:06:08;98741.19;;;15.42;36.77
29733;BME280;16643;43.158;25.302;2023-02-17T14:08:39;98731.31;;;15.48;37.11
29733;BME280;16643;43.158;25.302;2023-02-17T14:11:09;98749.00;;;15.43;37.41
29733;BME280;16643;43.158;25.302;2023-02-17T14:13:37;98738.38;;;15.24;35.86
29733;BME280;16643;43.158;25.302;2023-02-17T14:16:03;98743.06;;;15.16;35.57